sensor_id;sensor_type;location;lat;lon;timestamp;P1;durP1;ratioP1;P2;durP2;ratioP2
60726;SDS011;46577;49.004;12.120;2022-11-20T00:01:09;38.10;;;17.40;;
60726;SDS011;46577;49.004;12.120;2022-11-20T00:03:39;38.40;;;17.40;;
60726;SDS011;46577;49.004;12.120;2022-11-20T00:06:06;40.77;;;19.57;;
60726;SDS011;46577;49.004;12.120;2022-11-20T00:08:34;37.80;;;17.77;;
60726;SDS011;46577;49.004;12.120;2022-11-20T00:11:06;41.13;;;17.70;;
60726;SDS011;46577;49.004;12.120;2022-11-20T00:13:34;38.70;;;19.13;;
60726;SDS011;46577;49.004;12.120;2022-11-20T00:16:00;34.40;;;17.47;;
60726;SDS011;46577;49.004;12.120;2022-11-20T00:18:27;43.17;;;18.20;;
60726;SDS011;46577;49.004;12.120;2022-11-20T00:20:53;35.93;;;17.17;;
60726;SDS011;46577;49.004;12.120;2022-11-20T00:23:24;37.17;;;17.07;;
60726;SDS011;46577;49.004;12.120;2022-11-20T00:25:50;42.90;;;18.10;;
60726;SDS011;46577;49.004;12.120;2022-11-20T00:28:15;40.53;;;19.53;;
60726;SDS011;46577;49.004;12.120;2022-11-20T00:30:41;47.30;;;19.37;;
60726;SDS011;46577;49.004;12.120;2022-11-20T00:33:07;33.07;;;16.53;;
60726;SDS011;46577;49.004;12.120;2022-11-20T00:35:32;36.90;;;17.67;;
60726;SDS011;46577;49.004;12.120;2022-11-20T00:37:58;39.60;;;19.17;;
60726;SDS011;46577;49.004;12.120;2022-11-20T00:40:23;37.40;;;17.37;;
60726;SDS011;46577;49.004;12.120;2022-11-20T00:42:49;33.20;;;17.50;;
60726;SDS011;46577;49.004;12.120;2022-11-20T00:45:14;35.33;;;18.37;;
60726;SDS011;46577;49.004;12.120;2022-11-20T00:47:40;40.70;;;18.63;;
60726;SDS011;46577;49.004;12.120;2022-11-20T00:50:05;43.17;;;18.10;;
60726;SDS011;46577;49.004;12.120;2022-11-20T00:52:31;38.50;;;19.23;;
60726;SDS011;46577;49.004;12.120;2022-11-20T00:54:57;38.53;;;18.40;;
60726;SDS011;46577;49.004;12.120;2022-11-20T00:57:22;44.37;;;19.13;;
60726;SDS011;46577;49.004;12.120;2022-11-20T00:59:48;40.20;;;18.70;;
60726;SDS011;46577;49.004;12.120;2022-11-20T01:02:13;44.93;;;19.43;;
60726;SDS011;46577;49.004;12.120;2022-11-20T01:04:41;42.53;;;19.47;;
60726;SDS011;46577;49.004;12.120;2022-11-20T01:07:07;39.93;;;18.67;;
60726;SDS011;46577;49.004;12.120;2022-11-20T01:09:32;40.23;;;18.10;;
60726;SDS011;46577;49.004;12.120;2022-11-20T01:11:58;33.53;;;17.30;;
60726;SDS011;46577;49.004;12.120;2022-11-20T01:14:24;34.77;;;16.77;;
60726;SDS011;46577;49.004;12.120;2022-11-20T01:16:50;38.57;;;19.40;;
60726;SDS011;46577;49.004;12.120;2022-11-20T01:19:20;40.70;;;18.03;;
60726;SDS011;46577;49.004;12.120;2022-11-20T01:21:48;33.87;;;16.63;;
60726;SDS011;46577;49.004;12.120;2022-11-20T01:24:16;41.07;;;18.80;;
60726;SDS011;46577;49.004;12.120;2022-11-20T01:26:43;35.70;;;17.57;;
60726;SDS011;46577;49.004;12.120;2022-11-20T01:29:12;39.30;;;18.60;;
60726;SDS011;46577;49.004;12.120;2022-11-20T01:31:44;35.47;;;17.20;;
60726;SDS011;46577;49.004;12.120;2022-11-20T01:34:11;34.33;;;15.97;;
60726;SDS011;46577;49.004;12.120;2022-11-20T01:36:38;43.07;;;17.83;;
60726;SDS011;46577;49.004;12.120;2022-11-20T01:39:06;30.93;;;15.80;;
60726;SDS011;46577;49.004;12.120;2022-11-20T01:41:36;33.20;;;15.67;;
60726;SDS011;46577;49.004;12.120;2022-11-20T01:44:22;38.67;;;17.20;;
60726;SDS011;46577;49.004;12.120;2022-11-20T01:47:08;38.70;;;17.90;;
60726;SDS011;46577;49.004;12.120;2022-11-20T01:49:40;35.13;;;16.23;;
60726;SDS011;46577;49.004;12.120;2022-11-20T01:54:44;36.77;;;18.20;;
60726;SDS011;46577;49.004;12.120;2022-11-20T01:57:18;34.37;;;15.30;;
60726;SDS011;46577;49.004;12.120;2022-11-20T01:59:46;36.00;;;17.80;;
60726;SDS011;46577;49.004;12.120;2022-11-20T02:02:19;41.60;;;17.57;;
60726;SDS011;46577;49.004;12.120;2022-11-20T02:04:46;34.60;;;17.07;;
60726;SDS011;46577;49.004;12.120;2022-11-20T02:07:14;35.93;;;17.80;;
60726;SDS011;46577;49.004;12.120;2022-11-20T02:09:40;38.13;;;18.37;;
60726;SDS011;46577;49.004;12.120;2022-11-20T02:12:06;36.90;;;18.20;;
60726;SDS011;46577;49.004;12.120;2022-11-20T02:14:51;44.10;;;19.43;;
60726;SDS011;46577;49.004;12.120;2022-11-20T02:17:17;45.40;;;20.50;;
60726;SDS011;46577;49.004;12.120;2022-11-20T02:19:42;36.27;;;18.03;;
60726;SDS011;46577;49.004;12.120;2022-11-20T02:22:16;40.23;;;17.33;;
60726;SDS011;46577;49.004;12.120;2022-11-20T02:24:51;39.33;;;19.00;;
60726;SDS011;46577;49.004;12.120;2022-11-20T02:27:16;47.40;;;21.10;;
60726;SDS011;46577;49.004;12.120;2022-11-20T02:30:02;34.63;;;18.03;;
60726;SDS011;46577;49.004;12.120;2022-11-20T02:32:33;34.40;;;16.57;;
60726;SDS011;46577;49.004;12.120;2022-11-20T02:35:35;37.30;;;18.70;;
60726;SDS011;46577;49.004;12.120;2022-11-20T02:37:50;36.03;;;18.03;;
60726;SDS011;46577;49.004;12.120;2022-11-20T02:40:18;39.83;;;17.47;;
60726;SDS011;46577;49.004;12.120;2022-11-20T02:42:43;40.50;;;19.73;;
60726;SDS011;46577;49.004;12.120;2022-11-20T02:45:09;39.53;;;18.10;;
60726;SDS011;46577;49.004;12.120;2022-11-20T02:47:36;37.20;;;18.80;;
60726;SDS011;46577;49.004;12.120;2022-11-20T02:50:02;40.90;;;17.97;;
60726;SDS011;46577;49.004;12.120;2022-11-20T02:52:28;41.80;;;17.70;;
60726;SDS011;46577;49.004;12.120;2022-11-20T02:54:54;39.10;;;18.43;;
60726;SDS011;46577;49.004;12.120;2022-11-20T02:57:20;46.37;;;18.97;;
60726;SDS011;46577;49.004;12.120;2022-11-20T02:59:45;42.77;;;18.80;;
60726;SDS011;46577;49.004;12.120;2022-11-20T03:02:11;38.50;;;18.53;;
60726;SDS011;46577;49.004;12.120;2022-11-20T03:04:36;40.67;;;18.00;;
60726;SDS011;46577;49.004;12.120;2022-11-20T03:07:02;38.97;;;18.10;;
60726;SDS011;46577;49.004;12.120;2022-11-20T03:09:28;35.60;;;16.50;;
60726;SDS011;46577;49.004;12.120;2022-11-20T03:11:54;35.00;;;17.03;;
60726;SDS011;46577;49.004;12.120;2022-11-20T03:14:20;38.47;;;18.20;;
60726;SDS011;46577;49.004;12.120;2022-11-20T03:16:46;39.10;;;17.50;;
60726;SDS011;46577;49.004;12.120;2022-11-20T03:19:12;36.90;;;17.97;;
60726;SDS011;46577;49.004;12.120;2022-11-20T03:21:38;41.20;;;18.50;;
60726;SDS011;46577;49.004;12.120;2022-11-20T03:24:04;42.47;;;17.10;;
60726;SDS011;46577;49.004;12.120;2022-11-20T03:26:30;38.73;;;17.47;;
60726;SDS011;46577;49.004;12.120;2022-11-20T03:28:56;38.63;;;17.87;;
60726;SDS011;46577;49.004;12.120;2022-11-20T03:31:28;34.00;;;16.10;;
60726;SDS011;46577;49.004;12.120;2022-11-20T03:33:57;31.60;;;16.10;;
60726;SDS011;46577;49.004;12.120;2022-11-20T03:36:24;32.80;;;16.50;;
60726;SDS011;46577;49.004;12.120;2022-11-20T03:38:50;40.97;;;19.30;;
60726;SDS011;46577;49.004;12.120;2022-11-20T03:41:18;38.57;;;18.70;;
60726;SDS011;46577;49.004;12.120;2022-11-20T03:43:49;43.27;;;18.27;;
60726;SDS011;46577;49.004;12.120;2022-11-20T03:46:16;41.07;;;18.53;;
60726;SDS011;46577;49.004;12.120;2022-11-20T03:48:42;40.23;;;18.77;;
60726;SDS011;46577;49.004;12.120;2022-11-20T03:53:33;32.73;;;16.07;;
60726;SDS011;46577;49.004;12.120;2022-11-20T03:55:58;40.87;;;18.53;;
60726;SDS011;46577;49.004;12.120;2022-11-20T03:58:24;37.07;;;18.00;;
60726;SDS011;46577;49.004;12.120;2022-11-20T04:00:50;46.50;;;19.37;;
60726;SDS011;46577;49.004;12.120;2022-11-20T04:03:15;40.43;;;19.03;;
60726;SDS011;46577;49.004;12.120;2022-11-20T04:05:41;44.10;;;18.90;;
60726;SDS011;46577;49.004;12.120;2022-11-20T04:08:06;50.20;;;19.60;;
60726;SDS011;46577;49.004;12.120;2022-11-20T04:10:32;44.23;;;19.10;;
60726;SDS011;46577;49.004;12.120;2022-11-20T04:12:57;40.30;;;18.13;;
60726;SDS011;46577;49.004;12.120;2022-11-20T04:15:23;37.97;;;18.60;;
60726;SDS011;46577;49.004;12.120;2022-11-20T04:17:49;41.57;;;18.23;;
60726;SDS011;46577;49.004;12.120;2022-11-20T04:20:14;37.97;;;17.93;;
60726;SDS011;46577;49.004;12.120;2022-11-20T04:22:40;38.87;;;17.57;;
60726;SDS011;46577;49.004;12.120;2022-11-20T04:25:05;40.77;;;17.67;;
60726;SDS011;46577;49.004;12.120;2022-11-20T04:27:31;39.83;;;18.37;;
60726;SDS011;46577;49.004;12.120;2022-11-20T04:29:57;37.17;;;17.33;;
60726;SDS011;46577;49.004;12.120;2022-11-20T04:32:23;44.33;;;17.80;;
60726;SDS011;46577;49.004;12.120;2022-11-20T04:34:48;34.73;;;16.80;;
60726;SDS011;46577;49.004;12.120;2022-11-20T04:37:14;39.70;;;17.80;;
60726;SDS011;46577;49.004;12.120;2022-11-20T04:39:39;38.37;;;19.83;;
60726;SDS011;46577;49.004;12.120;2022-11-20T04:42:05;38.17;;;18.40;;
60726;SDS011;46577;49.004;12.120;2022-11-20T04:44:49;44.17;;;18.20;;
60726;SDS011;46577;49.004;12.120;2022-11-20T04:47:15;45.40;;;18.23;;
60726;SDS011;46577;49.004;12.120;2022-11-20T04:49:40;39.20;;;18.57;;
60726;SDS011;46577;49.004;12.120;2022-11-20T04:52:06;42.63;;;18.90;;
60726;SDS011;46577;49.004;12.120;2022-11-20T04:54:31;39.03;;;18.07;;
60726;SDS011;46577;49.004;12.120;2022-11-20T04:56:57;42.43;;;19.63;;
60726;SDS011;46577;49.004;12.120;2022-11-20T04:59:22;49.00;;;20.17;;
60726;SDS011;46577;49.004;12.120;2022-11-20T05:01:48;46.60;;;20.20;;
60726;SDS011;46577;49.004;12.120;2022-11-20T05:04:14;38.23;;;19.17;;
60726;SDS011;46577;49.004;12.120;2022-11-20T05:06:39;36.47;;;18.57;;
60726;SDS011;46577;49.004;12.120;2022-11-20T05:09:05;45.07;;;18.60;;
60726;SDS011;46577;49.004;12.120;2022-11-20T05:11:31;44.43;;;18.13;;
60726;SDS011;46577;49.004;12.120;2022-11-20T05:13:57;40.30;;;18.40;;
60726;SDS011;46577;49.004;12.120;2022-11-20T05:16:24;43.17;;;19.27;;
60726;SDS011;46577;49.004;12.120;2022-11-20T05:18:50;37.83;;;17.80;;
60726;SDS011;46577;49.004;12.120;2022-11-20T05:21:17;42.27;;;18.87;;
60726;SDS011;46577;49.004;12.120;2022-11-20T05:23:44;36.13;;;17.93;;
60726;SDS011;46577;49.004;12.120;2022-11-20T05:26:16;44.13;;;18.27;;
60726;SDS011;46577;49.004;12.120;2022-11-20T05:28:44;43.40;;;18.77;;
60726;SDS011;46577;49.004;12.120;2022-11-20T05:31:10;42.20;;;17.80;;
60726;SDS011;46577;49.004;12.120;2022-11-20T05:33:40;44.53;;;20.70;;
60726;SDS011;46577;49.004;12.120;2022-11-20T05:36:07;42.17;;;19.87;;
60726;SDS011;46577;49.004;12.120;2022-11-20T05:38:33;47.37;;;20.27;;
60726;SDS011;46577;49.004;12.120;2022-11-20T05:41:05;38.77;;;17.40;;
60726;SDS011;46577;49.004;12.120;2022-11-20T05:43:36;45.20;;;17.40;;
60726;SDS011;46577;49.004;12.120;2022-11-20T05:46:03;45.10;;;18.20;;
60726;SDS011;46577;49.004;12.120;2022-11-20T05:48:30;40.17;;;18.17;;
60726;SDS011;46577;49.004;12.120;2022-11-20T05:50:57;47.60;;;18.63;;
60726;SDS011;46577;49.004;12.120;2022-11-20T05:53:23;41.97;;;20.27;;
60726;SDS011;46577;49.004;12.120;2022-11-20T05:56:22;47.57;;;19.67;;
60726;SDS011;46577;49.004;12.120;2022-11-20T05:58:43;39.47;;;18.07;;
60726;SDS011;46577;49.004;12.120;2022-11-20T06:01:29;51.17;;;19.50;;
60726;SDS011;46577;49.004;12.120;2022-11-20T06:03:54;33.93;;;17.03;;
60726;SDS011;46577;49.004;12.120;2022-11-20T06:06:20;47.53;;;20.50;;
60726;SDS011;46577;49.004;12.120;2022-11-20T06:08:46;42.20;;;17.20;;
60726;SDS011;46577;49.004;12.120;2022-11-20T06:11:13;45.33;;;20.20;;
60726;SDS011;46577;49.004;12.120;2022-11-20T06:13:39;50.60;;;20.03;;
60726;SDS011;46577;49.004;12.120;2022-11-20T06:16:05;47.67;;;20.10;;
60726;SDS011;46577;49.004;12.120;2022-11-20T06:18:31;45.20;;;20.13;;
60726;SDS011;46577;49.004;12.120;2022-11-20T06:21:03;45.13;;;19.33;;
60726;SDS011;46577;49.004;12.120;2022-11-20T06:23:31;45.00;;;18.80;;
60726;SDS011;46577;49.004;12.120;2022-11-20T06:26:00;45.23;;;20.77;;
60726;SDS011;46577;49.004;12.120;2022-11-20T06:28:30;47.50;;;20.30;;
60726;SDS011;46577;49.004;12.120;2022-11-20T06:30:55;40.17;;;18.63;;
60726;SDS011;46577;49.004;12.120;2022-11-20T06:33:21;45.97;;;20.13;;
60726;SDS011;46577;49.004;12.120;2022-11-20T06:35:47;45.17;;;19.30;;
60726;SDS011;46577;49.004;12.120;2022-11-20T06:38:12;43.03;;;19.37;;
60726;SDS011;46577;49.004;12.120;2022-11-20T06:40:41;39.63;;;18.47;;
60726;SDS011;46577;49.004;12.120;2022-11-20T06:43:10;51.43;;;21.03;;
60726;SDS011;46577;49.004;12.120;2022-11-20T06:45:36;46.73;;;18.43;;
60726;SDS011;46577;49.004;12.120;2022-11-20T06:48:02;43.43;;;17.53;;
60726;SDS011;46577;49.004;12.120;2022-11-20T06:50:28;44.87;;;20.13;;
60726;SDS011;46577;49.004;12.120;2022-11-20T06:52:53;44.10;;;19.97;;
60726;SDS011;46577;49.004;12.120;2022-11-20T06:55:19;48.10;;;19.87;;
60726;SDS011;46577;49.004;12.120;2022-11-20T06:57:45;39.37;;;18.33;;
60726;SDS011;46577;49.004;12.120;2022-11-20T07:00:10;46.57;;;20.03;;
60726;SDS011;46577;49.004;12.120;2022-11-20T07:02:36;47.73;;;19.10;;
60726;SDS011;46577;49.004;12.120;2022-11-20T07:05:02;51.07;;;21.53;;
60726;SDS011;46577;49.004;12.120;2022-11-20T07:07:28;47.87;;;20.47;;
60726;SDS011;46577;49.004;12.120;2022-11-20T07:09:54;48.00;;;21.17;;
60726;SDS011;46577;49.004;12.120;2022-11-20T07:12:19;44.00;;;18.37;;
60726;SDS011;46577;49.004;12.120;2022-11-20T07:14:45;40.83;;;18.10;;
60726;SDS011;46577;49.004;12.120;2022-11-20T07:17:11;43.73;;;18.23;;
60726;SDS011;46577;49.004;12.120;2022-11-20T07:19:37;42.77;;;19.73;;
60726;SDS011;46577;49.004;12.120;2022-11-20T07:22:02;46.67;;;21.27;;
60726;SDS011;46577;49.004;12.120;2022-11-20T07:24:28;50.90;;;19.47;;
60726;SDS011;46577;49.004;12.120;2022-11-20T07:26:53;54.27;;;21.50;;
60726;SDS011;46577;49.004;12.120;2022-11-20T07:29:19;50.33;;;20.47;;
60726;SDS011;46577;49.004;12.120;2022-11-20T07:31:44;48.20;;;22.07;;
60726;SDS011;46577;49.004;12.120;2022-11-20T07:34:10;37.93;;;18.67;;
60726;SDS011;46577;49.004;12.120;2022-11-20T07:36:35;41.73;;;18.70;;
60726;SDS011;46577;49.004;12.120;2022-11-20T07:39:01;43.13;;;18.77;;
60726;SDS011;46577;49.004;12.120;2022-11-20T07:41:27;35.70;;;16.63;;
60726;SDS011;46577;49.004;12.120;2022-11-20T07:43:52;38.33;;;18.00;;
60726;SDS011;46577;49.004;12.120;2022-11-20T07:46:18;49.37;;;19.70;;
60726;SDS011;46577;49.004;12.120;2022-11-20T07:48:43;35.67;;;15.60;;
60726;SDS011;46577;49.004;12.120;2022-11-20T07:51:09;39.73;;;19.37;;
60726;SDS011;46577;49.004;12.120;2022-11-20T07:53:35;37.23;;;18.47;;
60726;SDS011;46577;49.004;12.120;2022-11-20T07:56:00;44.47;;;19.43;;
60726;SDS011;46577;49.004;12.120;2022-11-20T07:58:28;35.90;;;16.50;;
60726;SDS011;46577;49.004;12.120;2022-11-20T08:00:55;36.40;;;17.77;;
60726;SDS011;46577;49.004;12.120;2022-11-20T08:03:21;39.10;;;18.47;;
60726;SDS011;46577;49.004;12.120;2022-11-20T08:05:46;34.57;;;15.30;;
60726;SDS011;46577;49.004;12.120;2022-11-20T08:08:12;35.07;;;15.97;;
60726;SDS011;46577;49.004;12.120;2022-11-20T08:10:38;34.43;;;16.30;;
60726;SDS011;46577;49.004;12.120;2022-11-20T08:13:03;32.03;;;15.17;;
60726;SDS011;46577;49.004;12.120;2022-11-20T08:15:48;33.03;;;15.97;;
60726;SDS011;46577;49.004;12.120;2022-11-20T08:18:15;30.53;;;15.73;;
60726;SDS011;46577;49.004;12.120;2022-11-20T08:20:42;37.57;;;17.53;;
60726;SDS011;46577;49.004;12.120;2022-11-20T08:23:07;34.80;;;16.20;;
60726;SDS011;46577;49.004;12.120;2022-11-20T08:25:34;33.80;;;16.40;;
60726;SDS011;46577;49.004;12.120;2022-11-20T08:28:02;29.80;;;13.93;;
60726;SDS011;46577;49.004;12.120;2022-11-20T08:30:33;30.87;;;15.47;;
60726;SDS011;46577;49.004;12.120;2022-11-20T08:33:03;32.17;;;15.73;;
60726;SDS011;46577;49.004;12.120;2022-11-20T08:35:34;35.43;;;16.33;;
60726;SDS011;46577;49.004;12.120;2022-11-20T08:38:01;31.60;;;16.50;;
60726;SDS011;46577;49.004;12.120;2022-11-20T08:40:30;29.20;;;15.30;;
60726;SDS011;46577;49.004;12.120;2022-11-20T08:42:56;30.53;;;16.27;;
60726;SDS011;46577;49.004;12.120;2022-11-20T08:45:22;31.37;;;14.40;;
60726;SDS011;46577;49.004;12.120;2022-11-20T08:47:48;32.20;;;15.37;;
60726;SDS011;46577;49.004;12.120;2022-11-20T08:50:14;26.57;;;14.63;;
60726;SDS011;46577;49.004;12.120;2022-11-20T08:52:41;33.10;;;15.60;;
60726;SDS011;46577;49.004;12.120;2022-11-20T08:55:07;32.53;;;15.10;;
60726;SDS011;46577;49.004;12.120;2022-11-20T08:57:33;29.40;;;15.70;;
60726;SDS011;46577;49.004;12.120;2022-11-20T09:00:00;30.87;;;14.27;;
60726;SDS011;46577;49.004;12.120;2022-11-20T09:02:26;28.87;;;13.67;;
60726;SDS011;46577;49.004;12.120;2022-11-20T09:04:52;27.10;;;13.53;;
60726;SDS011;46577;49.004;12.120;2022-11-20T09:07:18;24.73;;;12.97;;
60726;SDS011;46577;49.004;12.120;2022-11-20T09:09:44;28.37;;;14.17;;
60726;SDS011;46577;49.004;12.120;2022-11-20T09:12:10;27.63;;;13.90;;
60726;SDS011;46577;49.004;12.120;2022-11-20T09:14:36;30.13;;;14.63;;
60726;SDS011;46577;49.004;12.120;2022-11-20T09:17:01;28.73;;;14.77;;
60726;SDS011;46577;49.004;12.120;2022-11-20T09:19:27;30.33;;;13.93;;
60726;SDS011;46577;49.004;12.120;2022-11-20T09:21:52;30.60;;;15.63;;
60726;SDS011;46577;49.004;12.120;2022-11-20T09:24:18;28.47;;;14.70;;
60726;SDS011;46577;49.004;12.120;2022-11-20T09:26:45;26.50;;;14.30;;
60726;SDS011;46577;49.004;12.120;2022-11-20T09:29:11;30.80;;;14.43;;
60726;SDS011;46577;49.004;12.120;2022-11-20T09:31:36;22.63;;;12.27;;
60726;SDS011;46577;49.004;12.120;2022-11-20T09:34:02;29.93;;;13.87;;
60726;SDS011;46577;49.004;12.120;2022-11-20T09:36:28;22.63;;;12.63;;
60726;SDS011;46577;49.004;12.120;2022-11-20T09:38:53;18.87;;;9.93;;
60726;SDS011;46577;49.004;12.120;2022-11-20T09:41:26;23.03;;;9.53;;
60726;SDS011;46577;49.004;12.120;2022-11-20T09:44:25;24.10;;;10.73;;
60726;SDS011;46577;49.004;12.120;2022-11-20T09:47:02;13.33;;;6.50;;
60726;SDS011;46577;49.004;12.120;2022-11-20T09:49:33;9.23;;;5.20;;
60726;SDS011;46577;49.004;12.120;2022-11-20T09:55:06;7.47;;;3.97;;
60726;SDS011;46577;49.004;12.120;2022-11-20T09:57:36;4.20;;;3.17;;
60726;SDS011;46577;49.004;12.120;2022-11-20T10:00:05;4.77;;;3.43;;
60726;SDS011;46577;49.004;12.120;2022-11-20T10:05:13;4.93;;;3.33;;
60726;SDS011;46577;49.004;12.120;2022-11-20T10:10:44;6.20;;;3.90;;
60726;SDS011;46577;49.004;12.120;2022-11-20T10:13:16;10.03;;;4.70;;
60726;SDS011;46577;49.004;12.120;2022-11-20T10:15:53;8.80;;;4.60;;
60726;SDS011;46577;49.004;12.120;2022-11-20T10:21:10;5.33;;;4.17;;
60726;SDS011;46577;49.004;12.120;2022-11-20T10:26:26;6.10;;;4.07;;
60726;SDS011;46577;49.004;12.120;2022-11-20T10:29:13;9.00;;;4.13;;
60726;SDS011;46577;49.004;12.120;2022-11-20T10:31:46;7.80;;;4.83;;
60726;SDS011;46577;49.004;12.120;2022-11-20T10:37:14;8.40;;;4.50;;
60726;SDS011;46577;49.004;12.120;2022-11-20T10:48:23;4.70;;;4.20;;
60726;SDS011;46577;49.004;12.120;2022-11-20T11:01:23;4.13;;;3.23;;
60726;SDS011;46577;49.004;12.120;2022-11-20T11:03:49;6.23;;;3.67;;
60726;SDS011;46577;49.004;12.120;2022-11-20T11:09:04;4.87;;;3.70;;
60726;SDS011;46577;49.004;12.120;2022-11-20T11:11:40;6.33;;;3.43;;
60726;SDS011;46577;49.004;12.120;2022-11-20T11:16:32;4.30;;;2.73;;
60726;SDS011;46577;49.004;12.120;2022-11-20T11:19:11;3.53;;;2.87;;
60726;SDS011;46577;49.004;12.120;2022-11-20T11:21:39;5.37;;;3.13;;
60726;SDS011;46577;49.004;12.120;2022-11-20T11:24:25;5.40;;;3.30;;
60726;SDS011;46577;49.004;12.120;2022-11-20T11:27:02;5.90;;;3.90;;
60726;SDS011;46577;49.004;12.120;2022-11-20T11:29:35;5.17;;;3.20;;
60726;SDS011;46577;49.004;12.120;2022-11-20T11:32:05;6.33;;;3.37;;
60726;SDS011;46577;49.004;12.120;2022-11-20T11:34:32;3.50;;;2.70;;
60726;SDS011;46577;49.004;12.120;2022-11-20T11:36:57;5.17;;;3.80;;
60726;SDS011;46577;49.004;12.120;2022-11-20T11:39:24;6.90;;;3.20;;
60726;SDS011;46577;49.004;12.120;2022-11-20T11:41:52;4.80;;;2.70;;
60726;SDS011;46577;49.004;12.120;2022-11-20T11:44:43;6.07;;;3.60;;
60726;SDS011;46577;49.004;12.120;2022-11-20T11:58:41;4.73;;;3.23;;
60726;SDS011;46577;49.004;12.120;2022-11-20T12:04:12;5.13;;;3.70;;
60726;SDS011;46577;49.004;12.120;2022-11-20T12:06:59;9.20;;;4.03;;
60726;SDS011;46577;49.004;12.120;2022-11-20T12:09:33;8.80;;;3.53;;
60726;SDS011;46577;49.004;12.120;2022-11-20T12:12:08;4.10;;;3.13;;
60726;SDS011;46577;49.004;12.120;2022-11-20T12:14:40;4.33;;;3.03;;
60726;SDS011;46577;49.004;12.120;2022-11-20T12:17:11;4.83;;;3.20;;
60726;SDS011;46577;49.004;12.120;2022-11-20T12:19:38;5.90;;;3.40;;
60726;SDS011;46577;49.004;12.120;2022-11-20T12:22:09;9.17;;;3.73;;
60726;SDS011;46577;49.004;12.120;2022-11-20T12:30:21;2.60;;;2.40;;
60726;SDS011;46577;49.004;12.120;2022-11-20T12:43:26;4.43;;;2.57;;
60726;SDS011;46577;49.004;12.120;2022-11-20T12:49:17;3.70;;;2.93;;
60726;SDS011;46577;49.004;12.120;2022-11-20T12:52:15;2.93;;;2.60;;
60726;SDS011;46577;49.004;12.120;2022-11-20T12:57:35;3.17;;;2.10;;
60726;SDS011;46577;49.004;12.120;2022-11-20T13:05:34;4.13;;;2.30;;
60726;SDS011;46577;49.004;12.120;2022-11-20T13:08:20;3.50;;;2.23;;
60726;SDS011;46577;49.004;12.120;2022-11-20T13:10:52;5.47;;;2.77;;
60726;SDS011;46577;49.004;12.120;2022-11-20T13:16:26;2.83;;;2.43;;
60726;SDS011;46577;49.004;12.120;2022-11-20T13:19:02;4.00;;;2.50;;
60726;SDS011;46577;49.004;12.120;2022-11-20T13:21:39;6.10;;;3.20;;
60726;SDS011;46577;49.004;12.120;2022-11-20T13:24:07;2.97;;;2.57;;
60726;SDS011;46577;49.004;12.120;2022-11-20T13:27:02;2.60;;;2.40;;
60726;SDS011;46577;49.004;12.120;2022-11-20T13:29:43;5.33;;;3.00;;
60726;SDS011;46577;49.004;12.120;2022-11-20T13:34:54;4.10;;;2.23;;
60726;SDS011;46577;49.004;12.120;2022-11-20T13:37:29;2.70;;;2.43;;
60726;SDS011;46577;49.004;12.120;2022-11-20T13:42:37;3.03;;;2.53;;
60726;SDS011;46577;49.004;12.120;2022-11-20T13:45:09;6.03;;;3.33;;
60726;SDS011;46577;49.004;12.120;2022-11-20T13:47:48;8.70;;;3.27;;
60726;SDS011;46577;49.004;12.120;2022-11-20T13:50:15;7.80;;;3.43;;
60726;SDS011;46577;49.004;12.120;2022-11-20T13:55:55;3.57;;;2.50;;
60726;SDS011;46577;49.004;12.120;2022-11-20T13:58:40;3.17;;;2.83;;
60726;SDS011;46577;49.004;12.120;2022-11-20T14:03:39;4.30;;;2.83;;
60726;SDS011;46577;49.004;12.120;2022-11-20T14:06:11;5.83;;;2.90;;
60726;SDS011;46577;49.004;12.120;2022-11-20T14:08:40;9.23;;;3.70;;
60726;SDS011;46577;49.004;12.120;2022-11-20T14:16:34;4.07;;;3.43;;
60726;SDS011;46577;49.004;12.120;2022-11-20T14:21:45;7.80;;;4.07;;
60726;SDS011;46577;49.004;12.120;2022-11-20T14:24:12;3.80;;;2.90;;
60726;SDS011;46577;49.004;12.120;2022-11-20T14:26:42;4.63;;;3.70;;
60726;SDS011;46577;49.004;12.120;2022-11-20T14:29:13;5.07;;;3.50;;
60726;SDS011;46577;49.004;12.120;2022-11-20T14:31:44;5.27;;;3.27;;
60726;SDS011;46577;49.004;12.120;2022-11-20T14:34:30;4.20;;;3.10;;
60726;SDS011;46577;49.004;12.120;2022-11-20T14:36:58;4.57;;;3.20;;
60726;SDS011;46577;49.004;12.120;2022-11-20T14:39:33;3.53;;;2.97;;
60726;SDS011;46577;49.004;12.120;2022-11-20T14:42:01;5.87;;;3.63;;
60726;SDS011;46577;49.004;12.120;2022-11-20T14:44:29;8.30;;;3.63;;
60726;SDS011;46577;49.004;12.120;2022-11-20T14:46:58;6.07;;;3.80;;
60726;SDS011;46577;49.004;12.120;2022-11-20T14:49:25;6.67;;;4.53;;
60726;SDS011;46577;49.004;12.120;2022-11-20T14:52:00;4.43;;;3.10;;
60726;SDS011;46577;49.004;12.120;2022-11-20T14:54:28;4.83;;;3.57;;
60726;SDS011;46577;49.004;12.120;2022-11-20T14:59:27;4.07;;;3.10;;
60726;SDS011;46577;49.004;12.120;2022-11-20T15:01:54;8.17;;;5.60;;
60726;SDS011;46577;49.004;12.120;2022-11-20T15:04:31;9.17;;;6.03;;
60726;SDS011;46577;49.004;12.120;2022-11-20T15:06:57;7.20;;;4.50;;
60726;SDS011;46577;49.004;12.120;2022-11-20T15:09:24;9.87;;;4.70;;
60726;SDS011;46577;49.004;12.120;2022-11-20T15:11:54;8.47;;;4.90;;
60726;SDS011;46577;49.004;12.120;2022-11-20T15:14:22;4.00;;;3.50;;
60726;SDS011;46577;49.004;12.120;2022-11-20T15:16:48;12.17;;;2.77;;
60726;SDS011;46577;49.004;12.120;2022-11-20T15:19:16;2.90;;;2.20;;
60726;SDS011;46577;49.004;12.120;2022-11-20T15:21:49;4.63;;;2.90;;
60726;SDS011;46577;49.004;12.120;2022-11-20T15:24:15;2.90;;;2.50;;
60726;SDS011;46577;49.004;12.120;2022-11-20T15:26:41;2.47;;;2.27;;
60726;SDS011;46577;49.004;12.120;2022-11-20T15:29:08;5.00;;;2.80;;
60726;SDS011;46577;49.004;12.120;2022-11-20T15:31:36;3.13;;;2.20;;
60726;SDS011;46577;49.004;12.120;2022-11-20T15:34:08;4.07;;;2.00;;
60726;SDS011;46577;49.004;12.120;2022-11-20T15:36:39;3.43;;;2.30;;
60726;SDS011;46577;49.004;12.120;2022-11-20T15:39:05;2.13;;;1.93;;
60726;SDS011;46577;49.004;12.120;2022-11-20T15:41:32;2.53;;;2.03;;
60726;SDS011;46577;49.004;12.120;2022-11-20T15:43:59;5.70;;;2.40;;
60726;SDS011;46577;49.004;12.120;2022-11-20T15:46:28;5.33;;;2.70;;
60726;SDS011;46577;49.004;12.120;2022-11-20T15:48:58;3.63;;;2.40;;
60726;SDS011;46577;49.004;12.120;2022-11-20T15:51:26;2.47;;;2.27;;
60726;SDS011;46577;49.004;12.120;2022-11-20T15:53:54;2.30;;;2.10;;
60726;SDS011;46577;49.004;12.120;2022-11-20T15:56:20;2.53;;;2.33;;
60726;SDS011;46577;49.004;12.120;2022-11-20T15:58:46;3.30;;;2.20;;
60726;SDS011;46577;49.004;12.120;2022-11-20T16:01:12;4.73;;;2.57;;
60726;SDS011;46577;49.004;12.120;2022-11-20T16:03:42;3.80;;;2.03;;
60726;SDS011;46577;49.004;12.120;2022-11-20T16:06:08;2.90;;;2.10;;
60726;SDS011;46577;49.004;12.120;2022-11-20T16:08:34;2.63;;;2.40;;
60726;SDS011;46577;49.004;12.120;2022-11-20T16:10:59;5.40;;;2.50;;
60726;SDS011;46577;49.004;12.120;2022-11-20T16:13:25;6.33;;;2.80;;
60726;SDS011;46577;49.004;12.120;2022-11-20T16:16:51;6.50;;;3.30;;
60726;SDS011;46577;49.004;12.120;2022-11-20T16:19:00;4.90;;;3.00;;